sensor_id;sensor_type;location;lat;lon;timestamp;P1;durP1;ratioP1;P2;durP2;ratioP2
6979;SDS011;3530;52.832;10.680;2024-01-30T00:00:44;5.25;;;4.75;;
6979;SDS011;3530;52.832;10.680;2024-01-30T00:03:30;6.95;;;4.57;;
6979;SDS011;3530;52.832;10.680;2024-01-30T00:06:17;9.20;;;5.05;;
6979;SDS011;3530;52.832;10.680;2024-01-30T00:09:04;6.90;;;5.72;;
6979;SDS011;3530;52.832;10.680;2024-01-30T00:11:50;6.18;;;5.40;;
6979;SDS011;3530;52.832;10.680;2024-01-30T00:14:36;6.18;;;5.57;;
6979;SDS011;3530;52.832;10.680;2024-01-30T00:17:22;8.15;;;5.43;;
6979;SDS011;3530;52.832;10.680;2024-01-30T00:20:07;5.35;;;4.85;;
6979;SDS011;3530;52.832;10.680;2024-01-30T00:22:54;6.63;;;5.75;;
6979;SDS011;3530;52.832;10.680;2024-01-30T00:25:40;6.43;;;5.43;;
6979;SDS011;3530;52.832;10.680;2024-01-30T00:28:25;6.50;;;5.05;;
6979;SDS011;3530;52.832;10.680;2024-01-30T00:31:11;5.85;;;5.35;;
6979;SDS011;3530;52.832;10.680;2024-01-30T00:33:57;5.22;;;4.80;;
6979;SDS011;3530;52.832;10.680;2024-01-30T00:36:43;6.93;;;5.35;;
6979;SDS011;3530;52.832;10.680;2024-01-30T00:39:28;6.93;;;5.40;;
6979;SDS011;3530;52.832;10.680;2024-01-30T00:42:14;5.55;;;5.05;;
6979;SDS011;3530;52.832;10.680;2024-01-30T00:45:00;5.90;;;4.90;;
6979;SDS011;3530;52.832;10.680;2024-01-30T00:47:46;5.72;;;5.25;;
6979;SDS011;3530;52.832;10.680;2024-01-30T00:50:31;6.90;;;5.97;;
6979;SDS011;3530;52.832;10.680;2024-01-30T00:53:17;7.93;;;7.13;;
6979;SDS011;3530;52.832;10.680;2024-01-30T00:56:03;8.63;;;7.78;;
6979;SDS011;3530;52.832;10.680;2024-01-30T00:58:48;5.78;;;5.18;;
6979;SDS011;3530;52.832;10.680;2024-01-30T01:01:35;6.30;;;5.78;;
6979;SDS011;3530;52.832;10.680;2024-01-30T01:04:20;6.18;;;5.40;;
6979;SDS011;3530;52.832;10.680;2024-01-30T01:07:06;5.85;;;5.35;;
6979;SDS011;3530;52.832;10.680;2024-01-30T01:09:52;5.60;;;5.10;;
6979;SDS011;3530;52.832;10.680;2024-01-30T01:12:38;6.22;;;5.57;;
6979;SDS011;3530;52.832;10.680;2024-01-30T01:15:23;6.07;;;5.57;;
6979;SDS011;3530;52.832;10.680;2024-01-30T01:18:09;7.68;;;5.65;;
6979;SDS011;3530;52.832;10.680;2024-01-30T01:20:54;5.43;;;4.93;;
6979;SDS011;3530;52.832;10.680;2024-01-30T01:23:40;6.53;;;5.75;;
6979;SDS011;3530;52.832;10.680;2024-01-30T01:26:26;7.60;;;6.10;;
6979;SDS011;3530;52.832;10.680;2024-01-30T01:29:12;5.95;;;5.43;;
6979;SDS011;3530;52.832;10.680;2024-01-30T01:31:57;6.53;;;5.93;;
6979;SDS011;3530;52.832;10.680;2024-01-30T01:34:43;6.47;;;5.60;;
6979;SDS011;3530;52.832;10.680;2024-01-30T01:37:29;5.75;;;5.25;;
6979;SDS011;3530;52.832;10.680;2024-01-30T01:40:15;6.03;;;5.43;;
6979;SDS011;3530;52.832;10.680;2024-01-30T01:43:02;6.75;;;6.05;;
6979;SDS011;3530;52.832;10.680;2024-01-30T01:45:48;6.53;;;6.03;;
6979;SDS011;3530;52.832;10.680;2024-01-30T01:48:34;5.95;;;5.43;;
6979;SDS011;3530;52.832;10.680;2024-01-30T01:51:20;5.88;;;5.38;;
6979;SDS011;3530;52.832;10.680;2024-01-30T01:54:07;6.30;;;5.70;;
6979;SDS011;3530;52.832;10.680;2024-01-30T01:56:53;6.28;;;5.63;;
6979;SDS011;3530;52.832;10.680;2024-01-30T01:59:39;8.13;;;5.95;;
6979;SDS011;3530;52.832;10.680;2024-01-30T02:02:25;8.00;;;5.53;;
6979;SDS011;3530;52.832;10.680;2024-01-30T02:05:12;6.78;;;5.30;;
6979;SDS011;3530;52.832;10.680;2024-01-30T02:07:57;12.07;;;6.03;;
6979;SDS011;3530;52.832;10.680;2024-01-30T02:10:43;6.13;;;5.53;;
6979;SDS011;3530;52.832;10.680;2024-01-30T02:13:29;6.40;;;5.78;;
6979;SDS011;3530;52.832;10.680;2024-01-30T02:16:15;6.88;;;6.13;;
6979;SDS011;3530;52.832;10.680;2024-01-30T02:19:00;7.15;;;5.85;;
6979;SDS011;3530;52.832;10.680;2024-01-30T02:21:46;9.52;;;6.28;;
6979;SDS011;3530;52.832;10.680;2024-01-30T02:24:32;13.07;;;6.10;;
6979;SDS011;3530;52.832;10.680;2024-01-30T02:27:17;7.68;;;6.50;;
6979;SDS011;3530;52.832;10.680;2024-01-30T02:30:03;6.50;;;5.40;;
6979;SDS011;3530;52.832;10.680;2024-01-30T02:32:49;6.13;;;5.55;;
6979;SDS011;3530;52.832;10.680;2024-01-30T02:35:35;11.57;;;6.32;;
6979;SDS011;3530;52.832;10.680;2024-01-30T02:38:20;5.85;;;5.30;;
6979;SDS011;3530;52.832;10.680;2024-01-30T02:41:06;6.70;;;5.90;;
6979;SDS011;3530;52.832;10.680;2024-01-30T02:43:52;10.38;;;5.55;;
6979;SDS011;3530;52.832;10.680;2024-01-30T02:46:37;7.80;;;6.40;;
6979;SDS011;3530;52.832;10.680;2024-01-30T02:49:23;6.30;;;5.70;;
6979;SDS011;3530;52.832;10.680;2024-01-30T02:52:09;8.15;;;5.35;;
6979;SDS011;3530;52.832;10.680;2024-01-30T02:54:54;6.88;;;5.78;;
6979;SDS011;3530;52.832;10.680;2024-01-30T02:57:40;7.63;;;5.93;;
6979;SDS011;3530;52.832;10.680;2024-01-30T03:00:26;7.97;;;5.55;;
6979;SDS011;3530;52.832;10.680;2024-01-30T03:03:11;7.75;;;6.50;;
6979;SDS011;3530;52.832;10.680;2024-01-30T03:05:57;6.65;;;5.97;;
6979;SDS011;3530;52.832;10.680;2024-01-30T03:08:43;7.10;;;5.88;;
6979;SDS011;3530;52.832;10.680;2024-01-30T03:11:28;6.07;;;5.20;;
6979;SDS011;3530;52.832;10.680;2024-01-30T03:14:14;7.35;;;6.60;;
6979;SDS011;3530;52.832;10.680;2024-01-30T03:17:00;7.45;;;5.80;;
6979;SDS011;3530;52.832;10.680;2024-01-30T03:19:45;6.32;;;5.72;;
6979;SDS011;3530;52.832;10.680;2024-01-30T03:22:31;6.68;;;5.97;;
6979;SDS011;3530;52.832;10.680;2024-01-30T03:25:17;6.78;;;6.07;;
6979;SDS011;3530;52.832;10.680;2024-01-30T03:28:02;7.20;;;5.97;;
6979;SDS011;3530;52.832;10.680;2024-01-30T03:30:48;6.05;;;5.50;;
6979;SDS011;3530;52.832;10.680;2024-01-30T03:33:34;7.53;;;6.07;;
6979;SDS011;3530;52.832;10.680;2024-01-30T03:36:19;7.70;;;5.47;;
6979;SDS011;3530;52.832;10.680;2024-01-30T03:39:05;7.63;;;5.90;;
6979;SDS011;3530;52.832;10.680;2024-01-30T03:41:51;6.20;;;5.70;;
6979;SDS011;3530;52.832;10.680;2024-01-30T03:44:37;6.60;;;5.88;;
6979;SDS011;3530;52.832;10.680;2024-01-30T03:47:22;6.65;;;5.43;;
6979;SDS011;3530;52.832;10.680;2024-01-30T03:50:08;7.32;;;6.28;;
6979;SDS011;3530;52.832;10.680;2024-01-30T03:52:54;5.85;;;5.35;;
6979;SDS011;3530;52.832;10.680;2024-01-30T03:55:39;6.25;;;5.43;;
6979;SDS011;3530;52.832;10.680;2024-01-30T03:58:25;7.55;;;6.07;;
6979;SDS011;3530;52.832;10.680;2024-01-30T04:01:14;6.25;;;5.70;;
6979;SDS011;3530;52.832;10.680;2024-01-30T04:04:00;8.38;;;6.63;;
6979;SDS011;3530;52.832;10.680;2024-01-30T04:06:45;7.97;;;6.47;;
6979;SDS011;3530;52.832;10.680;2024-01-30T04:09:31;10.02;;;6.72;;
6979;SDS011;3530;52.832;10.680;2024-01-30T04:12:17;6.63;;;6.00;;
6979;SDS011;3530;52.832;10.680;2024-01-30T04:15:03;6.47;;;5.97;;
6979;SDS011;3530;52.832;10.680;2024-01-30T04:17:49;6.68;;;5.80;;
6979;SDS011;3530;52.832;10.680;2024-01-30T04:20:35;7.10;;;6.43;;
6979;SDS011;3530;52.832;10.680;2024-01-30T04:23:20;7.15;;;6.25;;
6979;SDS011;3530;52.832;10.680;2024-01-30T04:26:06;7.00;;;6.32;;
6979;SDS011;3530;52.832;10.680;2024-01-30T04:28:52;6.55;;;6.05;;
6979;SDS011;3530;52.832;10.680;2024-01-30T04:31:37;6.45;;;5.78;;
6979;SDS011;3530;52.832;10.680;2024-01-30T04:34:23;6.07;;;5.57;;
6979;SDS011;3530;52.832;10.680;2024-01-30T04:37:09;7.20;;;6.45;;
6979;SDS011;3530;52.832;10.680;2024-01-30T04:39:56;7.47;;;6.50;;
6979;SDS011;3530;52.832;10.680;2024-01-30T04:42:41;7.15;;;5.72;;
6979;SDS011;3530;52.832;10.680;2024-01-30T04:45:27;6.72;;;5.47;;
6979;SDS011;3530;52.832;10.680;2024-01-30T04:48:13;7.70;;;5.93;;
6979;SDS011;3530;52.832;10.680;2024-01-30T04:50:58;6.63;;;5.97;;
6979;SDS011;3530;52.832;10.680;2024-01-30T04:53:46;7.22;;;6.53;;
6979;SDS011;3530;52.832;10.680;2024-01-30T04:56:32;7.45;;;6.20;;
6979;SDS011;3530;52.832;10.680;2024-01-30T04:59:18;7.50;;;6.45;;
6979;SDS011;3530;52.832;10.680;2024-01-30T05:02:03;8.13;;;6.13;;
6979;SDS011;3530;52.832;10.680;2024-01-30T05:04:49;6.93;;;6.28;;
6979;SDS011;3530;52.832;10.680;2024-01-30T05:07:35;7.65;;;6.82;;
6979;SDS011;3530;52.832;10.680;2024-01-30T05:10:21;7.40;;;6.32;;
6979;SDS011;3530;52.832;10.680;2024-01-30T05:13:07;7.03;;;6.10;;
6979;SDS011;3530;52.832;10.680;2024-01-30T05:15:52;8.25;;;6.95;;
6979;SDS011;3530;52.832;10.680;2024-01-30T05:18:38;8.50;;;6.47;;
6979;SDS011;3530;52.832;10.680;2024-01-30T05:21:24;7.35;;;6.18;;
6979;SDS011;3530;52.832;10.680;2024-01-30T05:24:10;6.60;;;6.00;;
6979;SDS011;3530;52.832;10.680;2024-01-30T05:26:55;6.20;;;5.60;;
6979;SDS011;3530;52.832;10.680;2024-01-30T05:29:41;6.82;;;6.18;;
6979;SDS011;3530;52.832;10.680;2024-01-30T05:32:27;7.70;;;6.35;;
6979;SDS011;3530;52.832;10.680;2024-01-30T05:35:12;7.07;;;6.40;;
6979;SDS011;3530;52.832;10.680;2024-01-30T05:37:58;6.63;;;5.95;;
6979;SDS011;3530;52.832;10.680;2024-01-30T05:40:43;6.95;;;6.35;;
6979;SDS011;3530;52.832;10.680;2024-01-30T05:43:29;6.85;;;6.22;;
6979;SDS011;3530;52.832;10.680;2024-01-30T05:46:15;7.20;;;6.50;;
6979;SDS011;3530;52.832;10.680;2024-01-30T05:49:00;7.63;;;6.80;;
6979;SDS011;3530;52.832;10.680;2024-01-30T05:51:46;8.15;;;6.85;;
6979;SDS011;3530;52.832;10.680;2024-01-30T05:54:32;9.23;;;6.80;;
6979;SDS011;3530;52.832;10.680;2024-01-30T05:57:17;7.30;;;6.60;;
6979;SDS011;3530;52.832;10.680;2024-01-30T06:00:04;7.50;;;6.72;;
6979;SDS011;3530;52.832;10.680;2024-01-30T06:02:50;7.38;;;6.15;;
6979;SDS011;3530;52.832;10.680;2024-01-30T06:05:36;8.63;;;6.40;;
6979;SDS011;3530;52.832;10.680;2024-01-30T06:08:21;7.07;;;6.13;;
6979;SDS011;3530;52.832;10.680;2024-01-30T06:11:10;9.80;;;7.63;;
6979;SDS011;3530;52.832;10.680;2024-01-30T06:13:56;6.95;;;6.18;;
6979;SDS011;3530;52.832;10.680;2024-01-30T06:16:41;11.60;;;7.00;;
6979;SDS011;3530;52.832;10.680;2024-01-30T06:19:27;7.38;;;6.05;;
6979;SDS011;3530;52.832;10.680;2024-01-30T06:22:13;9.80;;;7.10;;
6979;SDS011;3530;52.832;10.680;2024-01-30T06:24:58;8.75;;;6.60;;
6979;SDS011;3530;52.832;10.680;2024-01-30T06:27:44;6.78;;;6.15;;
6979;SDS011;3530;52.832;10.680;2024-01-30T06:30:30;7.25;;;6.55;;
6979;SDS011;3530;52.832;10.680;2024-01-30T06:33:15;7.35;;;6.68;;
6979;SDS011;3530;52.832;10.680;2024-01-30T06:36:01;8.00;;;6.90;;
6979;SDS011;3530;52.832;10.680;2024-01-30T06:38:47;10.00;;;7.82;;
6979;SDS011;3530;52.832;10.680;2024-01-30T06:41:32;14.27;;;8.52;;
6979;SDS011;3530;52.832;10.680;2024-01-30T06:44:18;11.40;;;9.00;;
6979;SDS011;3530;52.832;10.680;2024-01-30T06:47:04;10.18;;;8.00;;
6979;SDS011;3530;52.832;10.680;2024-01-30T06:49:49;9.93;;;8.88;;
6979;SDS011;3530;52.832;10.680;2024-01-30T06:52:35;10.40;;;9.38;;
6979;SDS011;3530;52.832;10.680;2024-01-30T06:55:21;8.57;;;6.90;;
6979;SDS011;3530;52.832;10.680;2024-01-30T06:58:07;8.07;;;7.25;;
6979;SDS011;3530;52.832;10.680;2024-01-30T07:00:52;8.10;;;6.97;;
6979;SDS011;3530;52.832;10.680;2024-01-30T07:03:38;8.25;;;7.55;;
6979;SDS011;3530;52.832;10.680;2024-01-30T07:06:23;9.02;;;7.38;;
6979;SDS011;3530;52.832;10.680;2024-01-30T07:09:09;7.40;;;6.70;;
6979;SDS011;3530;52.832;10.680;2024-01-30T07:11:55;9.40;;;7.93;;
6979;SDS011;3530;52.832;10.680;2024-01-30T07:14:43;9.18;;;8.15;;
6979;SDS011;3530;52.832;10.680;2024-01-30T07:17:29;11.52;;;8.32;;
6979;SDS011;3530;52.832;10.680;2024-01-30T07:20:14;9.10;;;8.18;;
6979;SDS011;3530;52.832;10.680;2024-01-30T07:23:00;9.07;;;7.70;;
6979;SDS011;3530;52.832;10.680;2024-01-30T07:25:46;9.73;;;8.18;;
6979;SDS011;3530;52.832;10.680;2024-01-30T07:28:34;9.23;;;7.70;;
6979;SDS011;3530;52.832;10.680;2024-01-30T07:31:20;10.75;;;6.88;;
6979;SDS011;3530;52.832;10.680;2024-01-30T07:34:08;10.00;;;8.02;;
6979;SDS011;3530;52.832;10.680;2024-01-30T07:36:54;10.40;;;8.10;;
6979;SDS011;3530;52.832;10.680;2024-01-30T07:39:40;8.25;;;7.47;;
6979;SDS011;3530;52.832;10.680;2024-01-30T07:42:25;9.52;;;7.55;;
6979;SDS011;3530;52.832;10.680;2024-01-30T07:45:11;10.95;;;7.70;;
6979;SDS011;3530;52.832;10.680;2024-01-30T07:47:57;9.80;;;7.00;;
6979;SDS011;3530;52.832;10.680;2024-01-30T07:50:42;7.63;;;6.90;;
6979;SDS011;3530;52.832;10.680;2024-01-30T07:53:28;10.85;;;8.40;;
6979;SDS011;3530;52.832;10.680;2024-01-30T07:56:14;7.70;;;7.00;;
6979;SDS011;3530;52.832;10.680;2024-01-30T07:59:01;9.40;;;7.50;;
6979;SDS011;3530;52.832;10.680;2024-01-30T08:01:46;11.65;;;7.82;;
6979;SDS011;3530;52.832;10.680;2024-01-30T08:04:32;8.77;;;7.88;;
6979;SDS011;3530;52.832;10.680;2024-01-30T08:07:17;12.23;;;8.52;;
6979;SDS011;3530;52.832;10.680;2024-01-30T08:10:03;11.95;;;9.18;;
6979;SDS011;3530;52.832;10.680;2024-01-30T08:12:49;11.63;;;8.27;;
6979;SDS011;3530;52.832;10.680;2024-01-30T08:15:34;9.40;;;7.30;;
6979;SDS011;3530;52.832;10.680;2024-01-30T08:18:20;8.95;;;7.43;;
6979;SDS011;3530;52.832;10.680;2024-01-30T08:21:06;8.88;;;7.97;;
6979;SDS011;3530;52.832;10.680;2024-01-30T08:23:51;8.15;;;7.00;;
6979;SDS011;3530;52.832;10.680;2024-01-30T08:26:37;9.68;;;6.63;;
6979;SDS011;3530;52.832;10.680;2024-01-30T08:29:24;9.38;;;7.32;;
6979;SDS011;3530;52.832;10.680;2024-01-30T08:32:10;7.30;;;6.50;;
6979;SDS011;3530;52.832;10.680;2024-01-30T08:34:55;7.93;;;7.13;;
6979;SDS011;3530;52.832;10.680;2024-01-30T08:37:41;6.53;;;5.93;;
6979;SDS011;3530;52.832;10.680;2024-01-30T08:40:26;7.68;;;6.90;;
6979;SDS011;3530;52.832;10.680;2024-01-30T08:43:12;10.25;;;8.32;;
6979;SDS011;3530;52.832;10.680;2024-01-30T08:46:01;9.52;;;8.27;;
6979;SDS011;3530;52.832;10.680;2024-01-30T08:48:47;10.95;;;7.75;;
6979;SDS011;3530;52.832;10.680;2024-01-30T08:51:33;9.77;;;7.40;;
6979;SDS011;3530;52.832;10.680;2024-01-30T08:54:19;8.68;;;6.55;;
6979;SDS011;3530;52.832;10.680;2024-01-30T08:57:04;8.35;;;7.00;;
6979;SDS011;3530;52.832;10.680;2024-01-30T08:59:50;8.55;;;6.88;;
6979;SDS011;3530;52.832;10.680;2024-01-30T09:02:36;8.48;;;6.63;;
6979;SDS011;3530;52.832;10.680;2024-01-30T09:05:21;7.07;;;6.25;;
6979;SDS011;3530;52.832;10.680;2024-01-30T09:08:07;9.13;;;6.80;;
6979;SDS011;3530;52.832;10.680;2024-01-30T09:10:53;7.38;;;6.68;;
6979;SDS011;3530;52.832;10.680;2024-01-30T09:13:38;11.43;;;6.30;;
6979;SDS011;3530;52.832;10.680;2024-01-30T09:16:24;10.48;;;7.40;;
6979;SDS011;3530;52.832;10.680;2024-01-30T09:19:10;7.68;;;5.80;;
6979;SDS011;3530;52.832;10.680;2024-01-30T09:21:55;7.25;;;6.07;;
6979;SDS011;3530;52.832;10.680;2024-01-30T09:24:41;7.45;;;6.40;;
6979;SDS011;3530;52.832;10.680;2024-01-30T09:27:27;7.47;;;5.80;;
6979;SDS011;3530;52.832;10.680;2024-01-30T09:30:12;10.68;;;7.50;;
6979;SDS011;3530;52.832;10.680;2024-01-30T09:32:58;7.68;;;6.90;;
6979;SDS011;3530;52.832;10.680;2024-01-30T09:35:44;8.57;;;6.82;;
6979;SDS011;3530;52.832;10.680;2024-01-30T09:38:30;11.40;;;7.55;;
6979;SDS011;3530;52.832;10.680;2024-01-30T09:41:15;7.85;;;7.03;;
6979;SDS011;3530;52.832;10.680;2024-01-30T09:44:02;8.75;;;6.53;;
6979;SDS011;3530;52.832;10.680;2024-01-30T09:46:49;6.50;;;5.90;;
6979;SDS011;3530;52.832;10.680;2024-01-30T09:49:36;7.93;;;6.88;;
6979;SDS011;3530;52.832;10.680;2024-01-30T09:52:22;7.47;;;6.50;;
6979;SDS011;3530;52.832;10.680;2024-01-30T09:55:07;6.75;;;6.13;;
6979;SDS011;3530;52.832;10.680;2024-01-30T09:57:54;7.57;;;6.22;;
6979;SDS011;3530;52.832;10.680;2024-01-30T10:00:39;6.47;;;5.88;;
6979;SDS011;3530;52.832;10.680;2024-01-30T10:03:25;8.35;;;6.47;;
6979;SDS011;3530;52.832;10.680;2024-01-30T10:06:11;10.32;;;7.38;;
6979;SDS011;3530;52.832;10.680;2024-01-30T10:08:57;8.88;;;6.70;;
6979;SDS011;3530;52.832;10.680;2024-01-30T10:11:42;7.97;;;5.97;;
6979;SDS011;3530;52.832;10.680;2024-01-30T10:14:28;7.63;;;6.85;;
6979;SDS011;3530;52.832;10.680;2024-01-30T10:17:14;7.55;;;6.85;;
6979;SDS011;3530;52.832;10.680;2024-01-30T10:19:59;8.10;;;6.57;;
6979;SDS011;3530;52.832;10.680;2024-01-30T10:22:45;8.18;;;6.03;;
6979;SDS011;3530;52.832;10.680;2024-01-30T10:25:31;6.47;;;5.88;;
6979;SDS011;3530;52.832;10.680;2024-01-30T10:28:17;8.38;;;6.47;;
6979;SDS011;3530;52.832;10.680;2024-01-30T10:31:03;10.43;;;7.35;;
6979;SDS011;3530;52.832;10.680;2024-01-30T10:33:51;8.52;;;6.00;;
6979;SDS011;3530;52.832;10.680;2024-01-30T10:36:39;10.77;;;7.45;;
6979;SDS011;3530;52.832;10.680;2024-01-30T10:39:28;8.63;;;6.32;;
6979;SDS011;3530;52.832;10.680;2024-01-30T10:42:17;8.07;;;6.43;;
6979;SDS011;3530;52.832;10.680;2024-01-30T10:45:07;6.85;;;5.60;;
6979;SDS011;3530;52.832;10.680;2024-01-30T10:47:54;6.95;;;6.25;;
6979;SDS011;3530;52.832;10.680;2024-01-30T10:50:43;9.40;;;7.80;;
6979;SDS011;3530;52.832;10.680;2024-01-30T10:53:29;7.93;;;6.57;;
6979;SDS011;3530;52.832;10.680;2024-01-30T10:56:16;6.45;;;5.78;;
6979;SDS011;3530;52.832;10.680;2024-01-30T10:59:02;9.73;;;6.70;;
6979;SDS011;3530;52.832;10.680;2024-01-30T11:01:49;6.95;;;6.22;;
6979;SDS011;3530;52.832;10.680;2024-01-30T11:04:36;8.57;;;6.45;;
6979;SDS011;3530;52.832;10.680;2024-01-30T11:07:28;10.82;;;6.78;;
6979;SDS011;3530;52.832;10.680;2024-01-30T11:10:14;8.90;;;5.85;;
6979;SDS011;3530;52.832;10.680;2024-01-30T11:13:09;7.32;;;5.97;;
6979;SDS011;3530;52.832;10.680;2024-01-30T11:15:55;7.95;;;6.55;;
6979;SDS011;3530;52.832;10.680;2024-01-30T11:18:49;9.43;;;6.75;;
6979;SDS011;3530;52.832;10.680;2024-01-30T11:21:41;9.43;;;7.00;;
6979;SDS011;3530;52.832;10.680;2024-01-30T11:24:27;10.05;;;8.02;;
6979;SDS011;3530;52.832;10.680;2024-01-30T11:27:12;11.13;;;7.05;;
6979;SDS011;3530;52.832;10.680;2024-01-30T11:30:02;8.00;;;5.43;;
6979;SDS011;3530;52.832;10.680;2024-01-30T11:33:04;7.63;;;5.80;;
6979;SDS011;3530;52.832;10.680;2024-01-30T11:35:51;8.48;;;6.95;;
6979;SDS011;3530;52.832;10.680;2024-01-30T11:38:37;10.98;;;7.45;;
6979;SDS011;3530;52.832;10.680;2024-01-30T11:41:22;8.38;;;6.80;;
6979;SDS011;3530;52.832;10.680;2024-01-30T11:44:08;6.00;;;5.35;;
6979;SDS011;3530;52.832;10.680;2024-01-30T11:46:54;7.85;;;6.32;;
6979;SDS011;3530;52.832;10.680;2024-01-30T11:49:41;11.05;;;7.30;;
6979;SDS011;3530;52.832;10.680;2024-01-30T11:52:27;6.10;;;5.50;;
6979;SDS011;3530;52.832;10.680;2024-01-30T11:55:14;7.45;;;6.57;;
6979;SDS011;3530;52.832;10.680;2024-01-30T11:58:00;9.27;;;6.38;;
6979;SDS011;3530;52.832;10.680;2024-01-30T12:00:55;7.82;;;6.25;;
6979;SDS011;3530;52.832;10.680;2024-01-30T12:03:41;8.40;;;5.70;;
6979;SDS011;3530;52.832;10.680;2024-01-30T12:06:27;8.38;;;5.57;;
6979;SDS011;3530;52.832;10.680;2024-01-30T12:09:13;6.15;;;5.55;;
6979;SDS011;3530;52.832;10.680;2024-01-30T12:11:58;8.98;;;6.95;;
6979;SDS011;3530;52.832;10.680;2024-01-30T12:14:45;8.43;;;6.10;;
6979;SDS011;3530;52.832;10.680;2024-01-30T12:17:31;8.18;;;6.53;;
6979;SDS011;3530;52.832;10.680;2024-01-30T12:20:18;9.27;;;6.03;;
6979;SDS011;3530;52.832;10.680;2024-01-30T12:23:04;10.30;;;7.10;;
6979;SDS011;3530;52.832;10.680;2024-01-30T12:25:50;7.22;;;5.50;;
6979;SDS011;3530;52.832;10.680;2024-01-30T12:28:36;11.20;;;6.70;;
6979;SDS011;3530;52.832;10.680;2024-01-30T12:31:25;8.80;;;7.10;;
6979;SDS011;3530;52.832;10.680;2024-01-30T12:34:16;8.10;;;6.20;;
6979;SDS011;3530;52.832;10.680;2024-01-30T12:37:02;9.02;;;6.43;;
6979;SDS011;3530;52.832;10.680;2024-01-30T12:39:48;11.95;;;7.97;;
6979;SDS011;3530;52.832;10.680;2024-01-30T12:42:34;7.50;;;6.03;;
6979;SDS011;3530;52.832;10.680;2024-01-30T12:45:19;8.63;;;7.55;;
6979;SDS011;3530;52.832;10.680;2024-01-30T12:48:08;8.90;;;6.75;;
6979;SDS011;3530;52.832;10.680;2024-01-30T12:50:54;7.15;;;5.68;;
6979;SDS011;3530;52.832;10.680;2024-01-30T12:53:40;7.03;;;5.90;;
6979;SDS011;3530;52.832;10.680;2024-01-30T12:56:25;8.43;;;6.45;;
6979;SDS011;3530;52.832;10.680;2024-01-30T12:59:11;7.65;;;6.13;;
6979;SDS011;3530;52.832;10.680;2024-01-30T13:01:58;6.95;;;5.68;;
6979;SDS011;3530;52.832;10.680;2024-01-30T13:04:45;8.73;;;6.93;;
6979;SDS011;3530;52.832;10.680;2024-01-30T13:07:31;9.38;;;7.78;;
6979;SDS011;3530;52.832;10.680;2024-01-30T13:10:16;7.60;;;5.72;;
6979;SDS011;3530;52.832;10.680;2024-01-30T13:13:02;7.13;;;5.20;;
6979;SDS011;3530;52.832;10.680;2024-01-30T13:15:48;7.88;;;6.57;;
6979;SDS011;3530;52.832;10.680;2024-01-30T13:18:34;7.25;;;6.10;;
6979;SDS011;3530;52.832;10.680;2024-01-30T13:21:20;7.10;;;6.07;;
6979;SDS011;3530;52.832;10.680;2024-01-30T13:24:05;7.07;;;6.03;;
6979;SDS011;3530;52.832;10.680;2024-01-30T13:26:51;10.52;;;6.68;;
6979;SDS011;3530;52.832;10.680;2024-01-30T13:29:37;7.85;;;7.07;;
6979;SDS011;3530;52.832;10.680;2024-01-30T13:32:22;11.77;;;8.77;;
6979;SDS011;3530;52.832;10.680;2024-01-30T13:35:08;9.02;;;6.43;;
6979;SDS011;3530;52.832;10.680;2024-01-30T13:37:54;12.10;;;8.10;;
6979;SDS011;3530;52.832;10.680;2024-01-30T13:40:39;9.70;;;7.07;;
6979;SDS011;3530;52.832;10.680;2024-01-30T13:43:25;12.85;;;9.70;;
6979;SDS011;3530;52.832;10.680;2024-01-30T13:46:11;13.15;;;10.25;;
6979;SDS011;3530;52.832;10.680;2024-01-30T13:48:57;12.07;;;7.85;;
6979;SDS011;3530;52.832;10.680;2024-01-30T13:51:42;17.40;;;13.57;;
6979;SDS011;3530;52.832;10.680;2024-01-30T13:54:28;18.70;;;12.32;;
6979;SDS011;3530;52.832;10.680;2024-01-30T13:57:14;15.02;;;11.48;;
6979;SDS011;3530;52.832;10.680;2024-01-30T13:59:59;21.83;;;14.15;;
6979;SDS011;3530;52.832;10.680;2024-01-30T14:02:45;12.88;;;9.05;;
6979;SDS011;3530;52.832;10.680;2024-01-30T14:05:31;10.55;;;8.35;;
6979;SDS011;3530;52.832;10.680;2024-01-30T14:08:16;18.33;;;13.02;;
6979;SDS011;3530;52.832;10.680;2024-01-30T14:11:02;24.08;;;17.23;;
6979;SDS011;3530;52.832;10.680;2024-01-30T14:13:48;14.02;;;8.98;;
6979;SDS011;3530;52.832;10.680;2024-01-30T14:16:34;13.60;;;8.40;;
6979;SDS011;3530;52.832;10.680;2024-01-30T14:19:20;9.00;;;7.45;;
6979;SDS011;3530;52.832;10.680;2024-01-30T14:22:06;13.35;;;8.13;;
6979;SDS011;3530;52.832;10.680;2024-01-30T14:24:52;11.32;;;7.78;;
6979;SDS011;3530;52.832;10.680;2024-01-30T14:27:38;10.43;;;7.25;;
6979;SDS011;3530;52.832;10.680;2024-01-30T14:30:23;9.23;;;7.95;;
6979;SDS011;3530;52.832;10.680;2024-01-30T14:33:09;8.02;;;7.05;;
6979;SDS011;3530;52.832;10.680;2024-01-30T14:35:55;8.60;;;7.70;;
6979;SDS011;3530;52.832;10.680;2024-01-30T14:38:40;8.73;;;7.25;;
6979;SDS011;3530;52.832;10.680;2024-01-30T14:41:26;13.00;;;9.02;;
6979;SDS011;3530;52.832;10.680;2024-01-30T14:44:11;9.75;;;7.95;;
6979;SDS011;3530;52.832;10.680;2024-01-30T14:46:57;8.73;;;7.25;;
6979;SDS011;3530;52.832;10.680;2024-01-30T14:49:43;7.13;;;6.32;;
6979;SDS011;3530;52.832;10.680;2024-01-30T14:52:28;7.97;;;6.57;;
6979;SDS011;3530;52.832;10.680;2024-01-30T14:55:14;28.33;;;17.95;;
6979;SDS011;3530;52.832;10.680;2024-01-30T14:58:00;13.30;;;8.60;;
6979;SDS011;3530;52.832;10.680;2024-01-30T15:00:47;9.95;;;8.05;;
6979;SDS011;3530;52.832;10.680;2024-01-30T15:03:33;7.70;;;6.90;;
6979;SDS011;3530;52.832;10.680;2024-01-30T15:06:20;8.50;;;7.15;;
6979;SDS011;3530;52.832;10.680;2024-01-30T15:09:09;8.82;;;7.20;;
6979;SDS011;3530;52.832;10.680;2024-01-30T15:11:54;8.95;;;7.57;;
6979;SDS011;3530;52.832;10.680;2024-01-30T15:14:40;11.05;;;7.30;;
6979;SDS011;3530;52.832;10.680;2024-01-30T15:17:26;10.35;;;7.50;;
6979;SDS011;3530;52.832;10.680;2024-01-30T15:20:11;8.18;;;7.38;;
6979;SDS011;3530;52.832;10.680;2024-01-30T15:22:57;8.40;;;7.10;;
6979;SDS011;3530;52.832;10.680;2024-01-30T15:25:43;8.00;;;6.88;;
6979;SDS011;3530;52.832;10.680;2024-01-30T15:28:35;10.52;;;7.38;;
6979;SDS011;3530;52.832;10.680;2024-01-30T15:31:22;7.57;;;6.47;;
6979;SDS011;3530;52.832;10.680;2024-01-30T15:34:07;7.60;;;6.18;;
6979;SDS011;3530;52.832;10.680;2024-01-30T15:36:53;6.82;;;6.00;;
6979;SDS011;3530;52.832;10.680;2024-01-30T15:39:39;9.07;;;6.70;;
6979;SDS011;3530;52.832;10.680;2024-01-30T15:42:25;7.38;;;6.30;;
6979;SDS011;3530;52.832;10.680;2024-01-30T15:45:11;9.93;;;6.43;;
6979;SDS011;3530;52.832;10.680;2024-01-30T15:47:56;10.57;;;7.68;;
6979;SDS011;3530;52.832;10.680;2024-01-30T15:50:43;8.48;;;6.55;;
6979;SDS011;3530;52.832;10.680;2024-01-30T15:53:29;10.55;;;8.55;;
6979;SDS011;3530;52.832;10.680;2024-01-30T15:56:15;12.48;;;8.60;;
6979;SDS011;3530;52.832;10.680;2024-01-30T15:59:01;14.77;;;8.00;;
6979;SDS011;3530;52.832;10.680;2024-01-30T16:01:46;11.90;;;8.20;;
6979;SDS011;3530;52.832;10.680;2024-01-30T16:04:34;16.88;;;12.23;;
6979;SDS011;3530;52.832;10.680;2024-01-30T16:07:19;9.20;;;7.70;;
6979;SDS011;3530;52.832;10.680;2024-01-30T16:10:05;8.85;;;6.82;;
6979;SDS011;3530;52.832;10.680;2024-01-30T16:12:52;9.35;;;7.30;;
6979;SDS011;3530;52.832;10.680;2024-01-30T16:15:38;11.45;;;9.93;;
6979;SDS011;3530;52.832;10.680;2024-01-30T16:18:25;9.25;;;8.10;;
6979;SDS011;3530;52.832;10.680;2024-01-30T16:21:11;8.95;;;6.82;;
6979;SDS011;3530;52.832;10.680;2024-01-30T16:23:59;10.25;;;8.07;;
6979;SDS011;3530;52.832;10.680;2024-01-30T16:26:45;10.10;;;7.18;;
6979;SDS011;3530;52.832;10.680;2024-01-30T16:29:30;7.82;;;7.10;;
6979;SDS011;3530;52.832;10.680;2024-01-30T16:32:16;10.45;;;7.90;;
6979;SDS011;3530;52.832;10.680;2024-01-30T16:35:02;9.73;;;8.27;;
6979;SDS011;3530;52.832;10.680;2024-01-30T16:37:48;9.68;;;7.43;;
6979;SDS011;3530;52.832;10.680;2024-01-30T16:40:33;8.70;;;7.03;;
6979;SDS011;3530;52.832;10.680;2024-01-30T16:43:19;14.68;;;9.70;;
6979;SDS011;3530;52.832;10.680;2024-01-30T16:46:04;12.18;;;9.25;;
6979;SDS011;3530;52.832;10.680;2024-01-30T16:48:50;9.38;;;7.18;;
6979;SDS011;3530;52.832;10.680;2024-01-30T16:51:36;7.95;;;7.20;;